Terminal Aerodrome Forecast
Issued by NWS

Home | Current Version | Previous Version | Text Only | Print | Product List | Glossary Off
Versions: 1 2 3 4 5 6 7 8 9 10 11 12 13 14 15 16 17 18 19

220
FTUS43 KABR 251136
TAFMBG
TAF
KMBG 251136Z 2512/2612 17006KT P6SM OVC090
     FM252000 31008KT P6SM -SHSNRA BKN080
     FM260200 16004KT P6SM BKN090
     FM261100 32007KT P6SM SCT090=

USA.gov is the U.S. government's official web portal to all federal, state and local government web resources and services.